Aviation Digital Data Service (ADDS)

Output produced by METARs form (1804 UTC 19 October 2017)
found at http://www.aviationweather.gov/adds/metars/
 
LYBE 191800Z 36003KT 290V020 CAVOK 16/04 Q1017 NOSIG
TAF LYBE 191700Z 1918/2018 25004KT CAVOK TX24/2012Z TN08/2004Z 
     TEMPO 2004/2006 2000 BR
       
LYNI 191800Z 10006KT CAVOK 16/08 Q1017
TAF LYNI 191700Z 1918/2018 09004KT CAVOK TX25/2013Z TN07/2004Z 
     TEMPO 2004/2006 3000 BR
       
LYVR 191800Z 04004KT CAVOK 13/11 Q1016 NOSIG
TAF LYVR 191700Z 1918/2018 VRB02KT CAVOK TX24/2012Z TN07/2004Z 
     BECMG 2001/2003 2000 BR 
     PROB40 2004/2006 0600 FG 
     BECMG 2007/2009 8000 NSW
       
LYKV 191800Z 13002KT CAVOK 14/10 Q1017 NOSIG
TAF LYKV 191700Z 1918/2018 VRB02KT CAVOK TX25/2013Z TN06/2004Z 
     BECMG 2000/2002 0500 FG 
     TEMPO 2002/2006 0200 VV002 
     BECMG 2007/2009 9999 NSW
       
LYBT 191800Z 04001KT CAVOK 13/05 Q1016 NOSIG
TAF LYBT 191700Z 1918/2018 VRB02KT CAVOK TX24/2013Z TN07/2004Z 
     BECMG 2002/2004 3000 BR 
     TEMPO 2004/2007 1000 
     BECMG 2007/2009 CAVOK
       
LYUZ 191800Z AUTO 00000KT CAVOK 13/05 Q1020
TAF LYUZ 191700Z 1918/2018 24006KT CAVOK TX20/2013Z TN09/2004Z